createdAt,value
2022-12-24T00:01:05.932Z,5.36
2022-12-24T00:03:34.067Z,5.43
2022-12-24T00:06:06.305Z,5.43
2022-12-24T00:08:34.237Z,5.44
2022-12-24T00:11:01.301Z,5.55
2022-12-24T00:13:28.369Z,5.66
2022-12-24T00:15:55.756Z,5.75
2022-12-24T00:18:22.852Z,5.78
2022-12-24T00:20:50.152Z,5.80
2022-12-24T00:23:17.933Z,5.86
2022-12-24T00:25:45.675Z,5.81
2022-12-24T00:28:13.573Z,5.88
2022-12-24T00:30:42.475Z,5.65
2022-12-24T00:33:10.068Z,5.52
2022-12-24T00:35:38.829Z,5.56
2022-12-24T00:38:07.180Z,5.63
2022-12-24T00:40:34.234Z,5.46
2022-12-24T00:43:01.340Z,5.50
2022-12-24T00:45:28.680Z,5.57
2022-12-24T00:47:56.236Z,5.58
2022-12-24T00:50:23.324Z,5.66
2022-12-24T00:52:50.726Z,5.69
2022-12-24T00:55:17.868Z,5.62
2022-12-24T00:57:45.090Z,5.67
2022-12-24T01:00:12.769Z,5.64
2022-12-24T01:02:40.052Z,5.71
2022-12-24T01:05:10.423Z,5.77
2022-12-24T01:07:40.512Z,5.81
2022-12-24T01:10:09.055Z,5.84
2022-12-24T01:12:36.784Z,5.93
2022-12-24T01:15:05.161Z,5.93
2022-12-24T01:17:33.713Z,5.92
2022-12-24T01:20:01.166Z,6.00
2022-12-24T01:22:28.621Z,6.21
2022-12-24T01:24:55.853Z,6.22
2022-12-24T01:27:23.385Z,6.23
2022-12-24T01:29:50.805Z,6.25
2022-12-24T01:32:17.950Z,6.17
2022-12-24T01:34:45.079Z,6.18
2022-12-24T01:37:12.550Z,6.19
2022-12-24T01:39:39.729Z,6.36
2022-12-24T01:42:42.368Z,6.30
2022-12-24T01:45:40.689Z,6.26
2022-12-24T01:48:19.923Z,6.28
2022-12-24T01:50:48.989Z,6.22
2022-12-24T01:53:16.340Z,6.11
2022-12-24T01:55:45.021Z,6.06
2022-12-24T01:58:14.434Z,6.16
2022-12-24T02:00:41.510Z,5.98
2022-12-24T02:03:09.059Z,6.04
2022-12-24T02:05:51.841Z,6.08
2022-12-24T02:08:19.692Z,6.03
2022-12-24T02:10:47.542Z,6.01
2022-12-24T02:13:17.831Z,5.90
2022-12-24T02:16:03.279Z,5.98
2022-12-24T02:18:48.832Z,6.00
2022-12-24T02:21:53.535Z,5.93
2022-12-24T02:24:58.351Z,5.89
2022-12-24T02:27:33.281Z,5.94
2022-12-24T02:30:03.123Z,6.03
2022-12-24T02:33:09.730Z,6.07
2022-12-24T02:35:46.496Z,6.02
2022-12-24T02:38:20.060Z,5.94
2022-12-24T02:40:52.160Z,6.04
2022-12-24T02:43:23.859Z,5.93
2022-12-24T02:45:59.000Z,5.83
2022-12-24T02:48:29.682Z,5.73
2022-12-24T02:50:56.823Z,5.76
2022-12-24T02:53:24.064Z,6.00
2022-12-24T02:56:42.960Z,5.75
2022-12-24T02:59:12.952Z,5.68
2022-12-24T03:01:52.640Z,5.65
2022-12-24T03:04:42.554Z,5.68
2022-12-24T03:07:21.289Z,5.70
2022-12-24T03:10:11.071Z,5.75
2022-12-24T03:12:48.763Z,5.78
2022-12-24T03:15:17.699Z,5.73
2022-12-24T03:17:47.269Z,5.60
2022-12-24T03:20:21.146Z,5.64
2022-12-24T03:22:48.896Z,5.50
2022-12-24T03:25:16.604Z,5.55
2022-12-24T03:27:44.098Z,5.54
2022-12-24T03:30:13.451Z,5.57
2022-12-24T03:32:40.646Z,5.64
2022-12-24T03:35:09.058Z,5.60
2022-12-24T03:37:36.617Z,5.66
2022-12-24T03:40:05.510Z,5.65
2022-12-24T03:42:32.720Z,5.59
2022-12-24T03:45:00.200Z,5.57
2022-12-24T03:47:27.390Z,5.37
2022-12-24T03:49:54.881Z,5.28
2022-12-24T03:52:22.324Z,5.31
2022-12-24T03:54:49.481Z,5.29
2022-12-24T03:57:16.591Z,5.49
2022-12-24T03:59:44.295Z,5.53
2022-12-24T04:02:11.617Z,5.52
2022-12-24T04:04:39.216Z,5.49
2022-12-24T04:07:09.161Z,5.34
2022-12-24T04:09:36.598Z,5.32
2022-12-24T04:12:04.274Z,5.35
2022-12-24T04:14:31.472Z,5.39
2022-12-24T04:16:58.717Z,5.39
2022-12-24T04:19:26.239Z,5.33
2022-12-24T04:21:53.363Z,5.36
2022-12-24T04:24:20.498Z,5.23
2022-12-24T04:26:47.904Z,5.27
2022-12-24T04:29:15.063Z,5.33
2022-12-24T04:31:42.282Z,5.31
2022-12-24T04:34:09.722Z,5.26
2022-12-24T04:36:36.889Z,5.29
2022-12-24T04:39:04.051Z,5.35
2022-12-24T04:41:32.210Z,5.41
2022-12-24T04:43:59.385Z,5.33
2022-12-24T04:46:30.594Z,5.32
2022-12-24T04:48:58.738Z,5.36
2022-12-24T04:51:26.915Z,5.41
2022-12-24T04:53:54.856Z,5.36
2022-12-24T04:56:27.490Z,5.41
2022-12-24T04:58:55.204Z,5.38
2022-12-24T05:01:25.192Z,5.45
2022-12-24T05:03:53.092Z,5.49
2022-12-24T05:06:22.643Z,5.58
2022-12-24T05:08:50.163Z,5.65
2022-12-24T05:11:17.629Z,5.60
2022-12-24T05:13:47.457Z,5.56
2022-12-24T05:16:20.931Z,5.45
2022-12-24T05:18:48.089Z,5.48
2022-12-24T05:21:21.439Z,5.40
2022-12-24T05:24:07.721Z,5.37
2022-12-24T05:26:45.122Z,5.36
2022-12-24T05:29:12.786Z,5.38
2022-12-24T05:31:40.909Z,5.37
2022-12-24T05:34:09.146Z,5.41
2022-12-24T05:36:36.430Z,5.38
2022-12-24T05:39:07.197Z,5.47
2022-12-24T05:41:37.106Z,5.29
2022-12-24T05:44:04.661Z,5.25
2022-12-24T05:46:31.900Z,5.26
2022-12-24T05:48:59.099Z,5.20
2022-12-24T05:51:26.586Z,5.14
2022-12-24T05:53:53.788Z,5.18
2022-12-24T05:56:23.072Z,5.22
2022-12-24T05:58:52.133Z,5.32
2022-12-24T06:01:20.070Z,5.53
2022-12-24T06:03:49.697Z,5.70
2022-12-24T06:06:21.110Z,5.80
2022-12-24T06:08:50.225Z,5.85
2022-12-24T06:11:19.469Z,5.90
2022-12-24T06:13:46.986Z,5.90
2022-12-24T06:16:16.874Z,5.98
2022-12-24T06:18:44.530Z,6.01
2022-12-24T06:21:12.625Z,6.03
2022-12-24T06:23:41.831Z,5.93
2022-12-24T06:26:12.300Z,5.91
2022-12-24T06:28:40.003Z,5.93
2022-12-24T06:31:09.762Z,5.80
2022-12-24T06:33:36.893Z,5.75
2022-12-24T06:36:13.240Z,5.82
2022-12-24T06:38:46.577Z,5.85
2022-12-24T06:41:14.229Z,5.78
2022-12-24T06:43:46.810Z,5.78
2022-12-24T06:46:14.304Z,5.86
2022-12-24T06:48:43.109Z,5.86
2022-12-24T06:51:10.235Z,5.93
2022-12-24T06:53:37.604Z,6.00
2022-12-24T06:56:06.343Z,6.13
2022-12-24T06:58:34.410Z,6.09
2022-12-24T07:01:03.330Z,5.99
2022-12-24T07:03:31.010Z,5.88
2022-12-24T07:05:58.428Z,5.90
2022-12-24T07:08:26.129Z,5.93
2022-12-24T07:10:54.432Z,5.86
2022-12-24T07:13:21.863Z,5.77
2022-12-24T07:16:00.122Z,5.70
2022-12-24T07:18:27.516Z,5.51
2022-12-24T07:20:55.027Z,5.52
2022-12-24T07:23:22.322Z,5.60
2022-12-24T07:25:49.465Z,5.55
2022-12-24T07:28:17.475Z,5.50
2022-12-24T07:30:46.131Z,5.51
2022-12-24T07:33:13.279Z,5.51
2022-12-24T07:35:40.725Z,5.78
2022-12-24T07:38:07.939Z,5.94
2022-12-24T07:40:35.221Z,5.88
2022-12-24T07:43:02.666Z,5.63
2022-12-24T07:45:29.815Z,5.61
2022-12-24T07:47:56.995Z,5.75
2022-12-24T07:50:24.397Z,6.05
2022-12-24T07:52:51.547Z,6.42
2022-12-24T07:55:18.717Z,6.78
2022-12-24T07:57:46.142Z,6.79
2022-12-24T08:00:13.622Z,6.78
2022-12-24T08:02:41.205Z,6.67
2022-12-24T08:05:08.887Z,6.79
2022-12-24T08:07:36.170Z,6.74
2022-12-24T08:10:04.087Z,6.66
2022-12-24T08:12:31.220Z,6.56
2022-12-24T08:14:58.419Z,6.61
2022-12-24T08:17:31.990Z,6.74
2022-12-24T08:19:59.666Z,6.60
2022-12-24T08:22:27.055Z,6.53
2022-12-24T08:24:54.181Z,6.56
2022-12-24T08:27:21.310Z,6.59
2022-12-24T08:29:48.757Z,6.59
2022-12-24T08:32:15.974Z,6.65
2022-12-24T08:34:43.154Z,6.61
2022-12-24T08:37:10.508Z,6.54
2022-12-24T08:39:37.791Z,6.59
2022-12-24T08:42:05.072Z,6.70
2022-12-24T08:44:32.498Z,6.75
2022-12-24T08:46:59.632Z,6.71
2022-12-24T08:49:26.796Z,6.76
2022-12-24T08:51:54.200Z,6.70
2022-12-24T08:54:22.564Z,6.60
2022-12-24T08:56:49.673Z,6.62
2022-12-24T08:59:17.149Z,6.68
2022-12-24T09:01:44.453Z,6.80
2022-12-24T09:04:11.797Z,6.96
2022-12-24T09:06:39.294Z,7.13
2022-12-24T09:09:06.839Z,7.20
2022-12-24T09:11:34.714Z,7.31
2022-12-24T09:14:03.600Z,7.42
2022-12-24T09:16:30.703Z,7.47
2022-12-24T09:18:58.176Z,7.56
2022-12-24T09:21:25.692Z,7.63
2022-12-24T09:23:52.938Z,7.71
2022-12-24T09:26:24.487Z,7.95
2022-12-24T09:28:52.845Z,8.31
2022-12-24T09:31:20.345Z,8.56
2022-12-24T09:33:48.680Z,8.82
2022-12-24T09:36:16.160Z,9.01
2022-12-24T09:38:43.373Z,9.18
2022-12-24T09:41:22.787Z,9.38
2022-12-24T09:44:00.234Z,9.56
2022-12-24T09:46:32.168Z,9.68
2022-12-24T09:49:10.627Z,9.90
2022-12-24T09:52:02.044Z,10.00
2022-12-24T09:54:32.039Z,10.23
2022-12-24T09:57:04.342Z,10.26
2022-12-24T09:59:47.324Z,10.39
2022-12-24T10:02:17.609Z,10.41
2022-12-24T10:04:46.844Z,10.47
2022-12-24T10:07:47.899Z,10.52
2022-12-24T10:10:31.479Z,10.56
2022-12-24T10:13:55.917Z,10.65
2022-12-24T10:16:36.679Z,10.65
2022-12-24T10:19:28.949Z,10.70
2022-12-24T10:22:22.510Z,10.76
2022-12-24T10:25:12.983Z,10.78
2022-12-24T10:27:40.645Z,10.86
2022-12-24T10:30:19.777Z,10.88
2022-12-24T10:32:52.282Z,10.89
2022-12-24T10:35:32.645Z,10.96
2022-12-24T10:38:00.120Z,10.96
2022-12-24T10:40:43.855Z,11.02
2022-12-24T10:43:16.884Z,11.03
2022-12-24T10:45:50.512Z,11.03
2022-12-24T10:48:50.297Z,11.08
2022-12-24T10:51:33.852Z,11.04
2022-12-24T10:54:07.209Z,11.04
2022-12-24T10:56:42.273Z,11.13
2022-12-24T10:59:24.934Z,11.12
2022-12-24T11:01:53.132Z,11.14
2022-12-24T11:04:26.067Z,11.19
2022-12-24T11:06:54.378Z,11.14
2022-12-24T11:09:32.458Z,11.22
2022-12-24T11:12:05.361Z,11.31
2022-12-24T11:14:41.199Z,11.30
2022-12-24T11:17:19.755Z,11.32
2022-12-24T11:19:49.521Z,11.35
2022-12-24T11:22:24.457Z,11.35
2022-12-24T11:25:20.124Z,11.35
2022-12-24T11:27:51.405Z,11.32
2022-12-24T11:30:30.467Z,11.31
2022-12-24T11:33:00.687Z,11.31
2022-12-24T11:35:29.581Z,11.33
2022-12-24T11:38:03.155Z,11.32
2022-12-24T11:40:47.902Z,11.31
2022-12-24T11:43:20.184Z,11.35
2022-12-24T11:45:50.126Z,11.31
2022-12-24T11:48:27.644Z,11.30
2022-12-24T11:51:03.985Z,11.28
2022-12-24T11:53:59.383Z,11.27
2022-12-24T11:56:35.319Z,11.31
2022-12-24T11:59:33.650Z,11.32
2022-12-24T12:02:16.278Z,11.29
2022-12-24T12:04:44.767Z,11.31
2022-12-24T12:07:15.035Z,11.35
2022-12-24T12:09:45.804Z,11.42
2022-12-24T12:12:15.885Z,11.50
2022-12-24T12:14:53.097Z,11.48
2022-12-24T12:17:36.664Z,11.47
2022-12-24T12:20:15.643Z,11.50
2022-12-24T12:22:50.689Z,11.52
2022-12-24T12:25:22.086Z,11.51
2022-12-24T12:27:52.311Z,11.49
2022-12-24T12:30:21.392Z,11.54
2022-12-24T12:32:53.221Z,11.50
2022-12-24T12:35:33.703Z,11.55
2022-12-24T12:38:03.721Z,11.53
2022-12-24T12:40:54.895Z,11.53
2022-12-24T12:43:40.550Z,11.57
2022-12-24T12:46:18.415Z,11.55
2022-12-24T12:48:45.581Z,11.52
2022-12-24T12:51:24.046Z,11.57
2022-12-24T12:54:14.409Z,11.57
2022-12-24T12:56:45.030Z,11.60
2022-12-24T12:59:21.719Z,11.58
2022-12-24T13:02:20.161Z,11.57
2022-12-24T13:05:22.657Z,11.57
2022-12-24T13:08:28.368Z,11.53
2022-12-24T13:11:21.911Z,11.53
2022-12-24T13:14:01.385Z,11.51
2022-12-24T13:16:46.680Z,11.53
2022-12-24T13:19:42.326Z,11.55
2022-12-24T13:22:17.526Z,11.53
2022-12-24T13:24:55.585Z,11.51
2022-12-24T13:27:35.419Z,11.49
2022-12-24T13:30:36.862Z,11.41
2022-12-24T13:33:04.867Z,11.38
2022-12-24T13:35:38.026Z,11.34
2022-12-24T13:38:28.621Z,11.34
2022-12-24T13:40:56.308Z,11.29
2022-12-24T13:43:23.465Z,11.28
2022-12-24T13:45:51.755Z,11.28
2022-12-24T13:48:29.496Z,11.27
2022-12-24T13:50:59.084Z,11.26
2022-12-24T13:53:34.005Z,11.28
2022-12-24T13:56:09.166Z,11.32
2022-12-24T13:58:39.391Z,11.31
2022-12-24T14:01:14.278Z,11.33
2022-12-24T14:03:48.761Z,11.32
2022-12-24T14:06:49.285Z,11.33
2022-12-24T14:09:19.400Z,11.34
2022-12-24T14:11:58.776Z,11.33
2022-12-24T14:14:33.652Z,11.32
2022-12-24T14:17:12.097Z,11.31
2022-12-24T14:19:43.142Z,11.29
2022-12-24T14:22:22.506Z,11.23
2022-12-24T14:25:22.914Z,11.25
2022-12-24T14:27:54.176Z,11.22
2022-12-24T14:30:26.372Z,11.18
2022-12-24T14:32:54.252Z,11.19
2022-12-24T14:35:23.463Z,11.18
2022-12-24T14:37:52.845Z,11.14
2022-12-24T14:40:30.253Z,11.12
2022-12-24T14:43:16.360Z,11.07
2022-12-24T14:46:11.900Z,11.02
2022-12-24T14:48:45.999Z,10.98
2022-12-24T14:51:25.086Z,10.94
2022-12-24T14:53:52.465Z,10.90
2022-12-24T14:56:22.517Z,10.86
2022-12-24T14:58:50.229Z,10.88
2022-12-24T15:01:29.385Z,10.88
2022-12-24T15:04:09.265Z,10.87
2022-12-24T15:06:53.743Z,10.86
2022-12-24T15:09:24.148Z,10.79
2022-12-24T15:11:54.233Z,10.77
2022-12-24T15:14:22.785Z,10.75
2022-12-24T15:16:59.688Z,10.71
2022-12-24T15:19:32.332Z,10.62
2022-12-24T15:21:59.630Z,10.50
2022-12-24T15:24:32.737Z,10.51
2022-12-24T15:27:02.975Z,10.43
2022-12-24T15:29:32.929Z,10.43
2022-12-24T15:32:01.670Z,10.38
2022-12-24T15:34:30.076Z,10.32
2022-12-24T15:37:05.387Z,10.21
2022-12-24T15:39:32.879Z,10.15
2022-12-24T15:42:16.001Z,10.17
2022-12-24T15:44:56.857Z,10.15
2022-12-24T15:47:28.859Z,10.16
2022-12-24T15:49:56.288Z,10.16
2022-12-24T15:52:25.024Z,10.15
2022-12-24T15:54:57.720Z,10.17
2022-12-24T15:57:30.805Z,10.16
2022-12-24T15:59:59.787Z,10.09
2022-12-24T16:02:36.706Z,9.96
2022-12-24T16:05:19.599Z,9.78
2022-12-24T16:08:07.577Z,9.74
2022-12-24T16:10:44.030Z,9.45
2022-12-24T16:13:13.817Z,9.37
2022-12-24T16:15:51.100Z,9.24
2022-12-24T16:18:22.036Z,9.24
2022-12-24T16:20:50.841Z,9.36
2022-12-24T16:23:19.825Z,9.43
2022-12-24T16:25:47.027Z,9.51
2022-12-24T16:28:21.764Z,9.53
2022-12-24T16:30:49.618Z,9.52
2022-12-24T16:33:18.941Z,9.51
2022-12-24T16:35:46.957Z,9.49
2022-12-24T16:38:14.172Z,9.52
2022-12-24T16:40:42.057Z,9.54
2022-12-24T16:43:28.721Z,9.50
2022-12-24T16:46:02.332Z,9.37
2022-12-24T16:48:29.863Z,9.36
2022-12-24T16:50:57.417Z,9.34
2022-12-24T16:53:24.567Z,9.28
2022-12-24T16:55:51.861Z,9.27
2022-12-24T16:58:20.129Z,9.24
2022-12-24T17:00:47.447Z,9.29
2022-12-24T17:03:14.839Z,9.29
2022-12-24T17:05:43.841Z,9.32
2022-12-24T17:08:12.013Z,9.29
2022-12-24T17:10:39.614Z,9.33
2022-12-24T17:13:07.268Z,9.35
2022-12-24T17:15:34.424Z,9.33
2022-12-24T17:18:01.600Z,9.28
2022-12-24T17:20:29.127Z,9.29
2022-12-24T17:22:56.313Z,9.28
2022-12-24T17:25:23.515Z,9.25
2022-12-24T17:27:50.990Z,9.23
2022-12-24T17:30:18.227Z,9.21
2022-12-24T17:32:45.386Z,9.20
2022-12-24T17:35:15.024Z,9.16
2022-12-24T17:37:42.237Z,9.13
2022-12-24T17:40:10.055Z,9.12
2022-12-24T17:42:37.470Z,9.10
2022-12-24T17:45:05.044Z,9.17
2022-12-24T17:47:32.185Z,9.16
2022-12-24T17:49:59.709Z,9.09
2022-12-24T17:52:26.865Z,9.06
2022-12-24T17:54:54.912Z,9.03
2022-12-24T17:57:22.380Z,9.06
2022-12-24T17:59:49.587Z,9.03
2022-12-24T18:02:16.914Z,9.04
2022-12-24T18:04:44.424Z,9.06
2022-12-24T18:07:11.598Z,9.08
2022-12-24T18:09:41.502Z,9.11
2022-12-24T18:12:08.967Z,9.09
2022-12-24T18:14:36.081Z,9.10
2022-12-24T18:17:03.183Z,9.12
2022-12-24T18:19:30.790Z,9.12
2022-12-24T18:21:57.867Z,9.18
2022-12-24T18:24:25.007Z,9.15
2022-12-24T18:26:52.449Z,9.06
2022-12-24T18:29:21.046Z,9.07
2022-12-24T18:31:48.136Z,9.07
2022-12-24T18:34:15.655Z,9.03
2022-12-24T18:36:42.806Z,9.03
2022-12-24T18:39:09.912Z,9.01
2022-12-24T18:41:37.669Z,9.02
2022-12-24T18:44:04.960Z,9.06
2022-12-24T18:46:33.277Z,9.08
2022-12-24T18:49:01.482Z,9.10
2022-12-24T18:51:31.815Z,9.08
2022-12-24T18:53:59.008Z,9.08
2022-12-24T18:56:27.190Z,9.08
2022-12-24T18:58:59.768Z,9.08
2022-12-24T19:01:32.755Z,9.15
2022-12-24T19:04:00.859Z,9.17
2022-12-24T19:06:28.529Z,9.18
2022-12-24T19:08:57.880Z,9.12
2022-12-24T19:11:27.623Z,9.04
2022-12-24T19:13:55.140Z,8.95
2022-12-24T19:16:22.374Z,8.90
2022-12-24T19:18:50.159Z,8.87
2022-12-24T19:21:18.158Z,8.75
2022-12-24T19:23:46.543Z,8.66
2022-12-24T19:26:15.473Z,8.69
2022-12-24T19:28:42.982Z,8.77
2022-12-24T19:31:12.913Z,8.68
2022-12-24T19:33:43.123Z,8.57
2022-12-24T19:36:13.540Z,8.61
2022-12-24T19:38:41.343Z,8.53
2022-12-24T19:41:10.830Z,8.48
2022-12-24T19:43:43.065Z,8.36
2022-12-24T19:46:12.528Z,8.48
2022-12-24T19:48:41.068Z,8.51
2022-12-24T19:51:10.443Z,8.39
2022-12-24T19:53:38.185Z,8.26
2022-12-24T19:56:08.763Z,7.98
2022-12-24T19:58:36.046Z,7.85
2022-12-24T20:01:15.542Z,7.63
2022-12-24T20:03:44.631Z,7.35
2022-12-24T20:06:12.446Z,7.14
2022-12-24T20:08:39.960Z,6.99
2022-12-24T20:11:08.930Z,6.95
2022-12-24T20:13:40.449Z,7.05
2022-12-24T20:16:10.991Z,6.97
2022-12-24T20:18:38.369Z,6.88
2022-12-24T20:21:08.885Z,6.70
2022-12-24T20:23:40.576Z,6.61
2022-12-24T20:26:10.397Z,6.58
2022-12-24T20:28:38.744Z,6.42
2022-12-24T20:31:26.064Z,6.32
2022-12-24T20:33:53.507Z,6.18
2022-12-24T20:36:22.150Z,6.07
2022-12-24T20:38:49.664Z,6.03
2022-12-24T20:41:19.607Z,6.03
2022-12-24T20:43:48.675Z,6.04
2022-12-24T20:46:17.983Z,5.96
2022-12-24T20:48:45.354Z,6.08
2022-12-24T20:51:24.315Z,6.35
2022-12-24T20:53:57.193Z,6.54
2022-12-24T20:56:24.840Z,6.56
2022-12-24T20:58:52.869Z,6.36
2022-12-24T21:01:24.289Z,6.59
2022-12-24T21:03:53.760Z,6.78
2022-12-24T21:06:21.391Z,7.07
2022-12-24T21:08:49.535Z,7.02
2022-12-24T21:11:38.980Z,6.53
2022-12-24T21:14:06.154Z,6.39
2022-12-24T21:16:34.584Z,6.20
2022-12-24T21:19:02.032Z,6.19
2022-12-24T21:21:29.843Z,6.29
2022-12-24T21:23:58.043Z,6.19
2022-12-24T21:26:25.112Z,6.04
2022-12-24T21:28:53.122Z,6.05
2022-12-24T21:31:21.089Z,5.81
2022-12-24T21:33:48.244Z,5.64
2022-12-24T21:36:15.633Z,5.56
2022-12-24T21:38:43.278Z,5.58
2022-12-24T21:41:13.385Z,5.45
2022-12-24T21:43:40.906Z,5.34
2022-12-24T21:46:10.098Z,5.26
2022-12-24T21:48:56.241Z,5.24
2022-12-24T21:51:25.347Z,5.39
2022-12-24T21:54:11.287Z,5.31
2022-12-24T21:56:57.648Z,5.31
2022-12-24T21:59:27.152Z,5.52
2022-12-24T22:01:56.463Z,5.58
2022-12-24T22:04:24.566Z,5.87
2022-12-24T22:07:10.425Z,5.82
2022-12-24T22:09:57.814Z,5.79
2022-12-24T22:12:25.881Z,5.88
2022-12-24T22:14:53.463Z,5.76
2022-12-24T22:17:25.120Z,5.75
2022-12-24T22:19:56.628Z,5.43
2022-12-24T22:22:25.114Z,5.52
2022-12-24T22:24:52.234Z,5.33
2022-12-24T22:27:19.503Z,5.58
2022-12-24T22:29:46.936Z,5.90
2022-12-24T22:32:14.132Z,5.98
2022-12-24T22:34:41.265Z,6.08
2022-12-24T22:37:08.663Z,6.53
2022-12-24T22:39:35.788Z,7.04
2022-12-24T22:42:03.219Z,6.92
2022-12-24T22:44:30.549Z,6.99
2022-12-24T22:46:57.647Z,7.14
2022-12-24T22:49:24.837Z,7.14
2022-12-24T22:51:52.267Z,7.42
2022-12-24T22:54:19.480Z,7.55
2022-12-24T22:56:46.629Z,7.67
2022-12-24T22:59:14.318Z,7.60
2022-12-24T23:01:44.245Z,7.99
2022-12-24T23:04:12.290Z,7.99
2022-12-24T23:06:40.319Z,8.00
2022-12-24T23:09:09.258Z,8.09
2022-12-24T23:11:36.506Z,8.08
2022-12-24T23:14:22.622Z,8.26
2022-12-24T23:16:50.186Z,8.13
2022-12-24T23:19:17.636Z,8.08
2022-12-24T23:21:44.800Z,7.99
2022-12-24T23:24:11.994Z,7.61
2022-12-24T23:26:39.909Z,7.58
2022-12-24T23:29:07.071Z,7.45
2022-12-24T23:31:37.710Z,7.34
2022-12-24T23:34:05.198Z,7.09
2022-12-24T23:36:32.297Z,6.87
2022-12-24T23:38:59.624Z,6.79
2022-12-24T23:41:27.202Z,6.75
2022-12-24T23:43:54.268Z,6.64
2022-12-24T23:46:24.387Z,6.64
2022-12-24T23:48:55.263Z,6.47
2022-12-24T23:51:24.848Z,6.55
2022-12-24T23:53:54.044Z,6.49
2022-12-24T23:56:21.956Z,6.48
2022-12-24T23:58:49.177Z,6.44
